• Join FlightAware (Why Join?)
  • Login
  • US Flag 
12:50AM EST


 

Airport Tracker/Info


-or-


 

Live Flight TrackerFlight Track Log ✈ N595PC ✈ 10-May-2014 ✈ KBLM - KCLE

Flight Track Log - Related Links

Times and Time Zones

All times are in EDT time to prevent confusion due to time zone crossing. See the N595PC flight status page for this flight to view local times or setup timezone preferences in your user account.

Time Position Orientation Groundspeed Altitude Reporting Facility
EDT Latitude Longitude Course Direction KTS MPH feet Rate Location/Type
10:35PM 40.3811 -75.1480 284° West  Level Estimated
10:36PM 40.3993 -75.2464 284° West  Level Estimated
10:37PM 40.4174 -75.3448 284° West  Level Estimated
10:38PM 40.4353 -75.4433 284° West  Level Estimated
10:39PM 40.4533 -75.5419 283° West  Level Estimated
10:40PM 40.4711 -75.6405 283° West  Level Estimated
10:40PM 40.0842 -75.5322 285° West 245 282 14,000  Level New York Center
10:41PM 40.4888 -75.7391 283° West  Level Estimated
10:41PM 40.1606 -75.5511 349° North 233 268 16,700  Level New York Center
10:42PM 40.5065 -75.8379 283° West  Level Estimated
10:42PM 40.2264 -75.5719 346° North 268 308 18,300  Level New York Center
10:43PM 40.5240 -75.9366 283° West  Level Estimated
10:43PM 40.2753 -75.6489 310° West 261 300 19,800  Level New York Center
10:44PM 40.5415 -76.0354 283° West  Level Estimated
10:44PM 40.3067 -75.7464 293° West 272 313 21,400  Level New York Center
10:45PM 40.5599 -76.1396 285° West  Level Estimated
10:45PM 40.3294 -75.8486 286° West 277 319 23,100  Level New York Center
10:46PM 40.3522 -75.9483 287° West 287 330 24,800 1,680 Climbing New York Center
10:47PM 40.3708 -76.0453 284° West 287 330 26,600 1,800 Climbing New York Center
10:48PM 40.3936 -76.1394 288° West 276 318 28,400 1,680 Climbing New York Center
10:49PM 40.4125 -76.2283 286° West 265 305 30,000 780 Climbing New York Center
10:50PM 40.4372 -76.3231 289° West 270 311 30,000  Level New York Center
10:51PM 40.4592 -76.4311 285° West 289 333 30,000  Level New York Center
10:52PM 40.4850 -76.5453 287° West 310 357 30,000  Level New York Center
10:53PM 40.5128 -76.6594 288° West 325 374 30,000  Level New York Center
10:54PM 40.5381 -76.7764 286° West 330 380 30,000  Level New York Center
10:55PM 40.5650 -76.8989 286° West 335 386 30,000  Level New York Center
10:56PM 40.5900 -77.0214 285° West 340 391 30,000 240 Level New York Center
10:58PM 40.6439 -77.2589 287° West 345 397 30,800 600 Climbing New York Center
10:59PM 40.6708 -77.3764 287° West 326 375 32,000 480 Climbing New York Center
11:00PM 40.7033 -77.5214 287° West 305 351 32,000  Level Cleveland Center
11:01PM 40.7253 -77.6331 285° West 313 360 32,000  Level Cleveland Center
11:02PM 40.7500 -77.7442 286° West 317 365 32,000 -300 Level Cleveland Center
11:03PM 40.7725 -77.8578 285° West 318 366 31,500 -900 Descending Cleveland Center
11:04PM 40.7983 -77.9736 286° West 327 376 30,300 -1,560 Descending Cleveland Center
11:05PM 40.8214 -78.0908 285° West 329 379 28,400 -1,560 Descending Cleveland Center
11:06PM 40.8494 -78.2114 287° West 340 391 27,200 -1,320 Descending Cleveland Center
11:07PM 40.8756 -78.3431 285° West 345 397 25,800 -1,440 Descending Cleveland Center
11:08PM 40.8992 -78.4578 285° West 332 382 24,400 -900 Descending Cleveland Center
11:09PM 40.9217 -78.5658 285° West 313 360 24,000 -840 Descending Cleveland Center
11:10PM 40.9442 -78.6822 284° West 327 376 22,800 -1,140 Descending Cleveland Center
11:11PM 40.9697 -78.7983 286° West 330 380 21,800 -1,020 Descending Cleveland Center
11:12PM 40.9914 -78.9136 284° West 329 379 20,800 -900 Descending Cleveland Center
11:13PM 41.0158 -79.0303 286° West 329 379 20,000 -420 Descending Cleveland Center
11:14PM 41.0378 -79.1503 284° West 332 382 20,000  Level Cleveland Center
11:15PM 41.0633 -79.2686 286° West 336 387 20,000  Level Cleveland Center
11:16PM 41.0850 -79.3894 283° West 336 387 20,000  Level Cleveland Center
11:17PM 41.1106 -79.5086 286° West 338 389 20,000  Level Cleveland Center
11:18PM 41.1364 -79.6486 284° West 337 388 20,000  Level Cleveland Center
11:19PM 41.1592 -79.7678 284° West 336 387 20,000  Level Cleveland Center
11:20PM 41.1836 -79.8853 285° West 334 384 20,000  Level Cleveland Center
11:21PM 41.2047 -80.0083 283° West 333 383 20,000  Level Cleveland Center
11:22PM 41.2286 -80.1272 285° West 334 384 20,000  Level Cleveland Center
11:23PM 41.2403 -80.2497 277° West 334 384 20,000  Level Cleveland Center
11:24PM 41.2539 -80.3669 279° West 334 384 20,000  Level Cleveland Center
11:25PM 41.2672 -80.4906 278° West 337 388 20,000 -660 Level Cleveland Center
11:26PM 41.2814 -80.6086 279° West 324 373 18,700 -1,440 Descending Cleveland Center
11:26PM 41.2831 -80.6364 275° West 327 376 18,300 -1,740 Descending Cleveland Center
11:27PM 41.2922 -80.7272 278° West 319 367 17,000 -1,800 Descending Cleveland Center
11:28PM 41.3064 -80.8425 279° West 313 360 15,000 -2,040 Descending Cleveland Center
11:28PM 41.3100 -80.8683 281° West 313 360 14,600 -1,980 Descending Cleveland Center
11:29PM 41.3172 -80.9517 277° West 298 343 13,000 -1,980 Descending Cleveland Center
11:29PM 41.3200 -80.9728 280° West 287 330 12,600 -2,160 Descending Cleveland Center
11:31PM 41.3475 -81.0911 287° West 283 326 10,300 -1,380 Descending Cleveland Center
11:31PM 41.3653 -81.1519 291° West 279 321 10,100 -300 Descending Cleveland Center
11:32PM 41.3819 -81.1797 309° West 273 314 10,000 -240 Descending Cleveland Center
11:32PM 41.4144 -81.2314 310° West 278 320 9,900 -540 Descending Cleveland Center
11:33PM 41.4297 -81.2569 309° West 274 315 9,500 -1,320 Descending Cleveland Center
11:33PM 41.4600 -81.3081 308° West 268 308 8,600 -1,440 Descending Cleveland Center
11:34PM 41.4733 -81.3333 305° West 263 303 8,100 -1,500 Descending Cleveland Center
11:34PM 41.5036 -81.3811 310° West 256 295 7,100 -1,320 Descending Cleveland Center
11:35PM 41.5175 -81.4044 308° West 248 285 6,800 -1,020 Descending Cleveland Center
11:35PM 41.5467 -81.4511 310° West 249 287 6,100 -840 Descending Cleveland Center
11:36PM 41.5594 -81.4753 305° West 229 264 6,000 -840 Descending Cleveland Center
11:36PM 41.5675 -81.5144 285° West 200 230 5,300 -1,020 Descending Cleveland Center
11:37PM 41.5664 -81.5406 267° West 174 200 5,000 -1,020 Descending Cleveland Center
11:37PM 41.5525 -81.5839 247° West 195 224 4,300 -1,320 Descending Cleveland Center
11:38PM 41.5453 -81.6125 251° West 207 238 3,700 -1,320 Descending Cleveland Center
11:38PM 41.5311 -81.6564 247° West 204 235 3,000 -720 Descending Cleveland Center
11:39PM 41.5222 -81.6817 245° Southwest 212 244 3,000  Level Cleveland Center
11:39PM 41.4972 -81.7172 227° Southwest 205 236 3,000  Level Cleveland Center
11:40PM 41.4878 -81.7347 234° Southwest 193 222 3,000 -600 Level Cleveland Center
11:40PM 41.4689 -81.7644 230° Southwest 173 199 2,400 -840 Descending Cleveland Center
11:41PM 41.4614 -81.7722 218° Southwest 128 147 2,200 -600 Descending Cleveland Center
11:41PM 41.4436 -81.7950 224° Southwest 137 158 1,800 -600 Descending Cleveland Center
11:42PM 41.4375 -81.8047 230° Southwest 108 124 1,600 -720 Descending Cleveland Center
11:42PM 41.4236 -81.8278 231° Southwest 121 139 1,100 -420 Descending Cleveland Center
11:43PM 41.4064 -81.8547 230° Southwest 118 136 900 -240 Descending Cleveland Center